createdAt,value
2018-10-12T00:02:06.946Z,11.27
2018-10-12T00:04:35.493Z,10.63
2018-10-12T00:07:04.052Z,11.40
2018-10-12T00:09:32.604Z,10.30
2018-10-12T00:12:01.224Z,10.93
2018-10-12T00:14:29.820Z,11.73
2018-10-12T00:16:58.484Z,12.00
2018-10-12T00:19:27.196Z,11.00
2018-10-12T00:21:55.820Z,12.53
2018-10-12T00:24:24.596Z,10.17
2018-10-12T00:26:53.201Z,10.57
2018-10-12T00:29:21.968Z,11.40
2018-10-12T00:31:50.532Z,10.00
2018-10-12T00:34:19.440Z,10.83
2018-10-12T00:37:05.128Z,10.20
2018-10-12T00:39:33.767Z,12.30
2018-10-12T00:42:02.357Z,13.30
2018-10-12T00:44:30.957Z,15.63
2018-10-12T00:46:59.515Z,12.90
2018-10-12T00:49:28.287Z,12.97
2018-10-12T00:51:56.904Z,12.30
2018-10-12T00:54:25.479Z,12.57
2018-10-12T00:56:54.037Z,12.67
2018-10-12T00:59:22.628Z,11.00
2018-10-12T01:01:51.156Z,14.00
2018-10-12T01:04:20.036Z,14.10
2018-10-12T01:06:48.678Z,14.80
2018-10-12T01:09:17.192Z,17.50
2018-10-12T01:11:45.740Z,16.57
2018-10-12T01:14:14.321Z,18.27
2018-10-12T01:16:42.882Z,17.90
2018-10-12T01:19:11.406Z,15.10
2018-10-12T01:21:48.420Z,19.43
2018-10-12T01:24:16.958Z,20.40
2018-10-12T01:26:45.503Z,18.03
2018-10-12T01:29:14.088Z,14.20
2018-10-12T01:31:42.633Z,16.23
2018-10-12T01:34:11.224Z,14.40
2018-10-12T01:36:39.764Z,13.80
2018-10-12T01:39:08.328Z,12.53
2018-10-12T01:41:36.876Z,10.10
2018-10-12T01:44:05.432Z,11.10
2018-10-12T01:46:33.972Z,10.93
2018-10-12T01:49:02.509Z,10.77
2018-10-12T01:51:31.065Z,10.60
2018-10-12T01:53:59.584Z,10.83
2018-10-12T01:56:28.120Z,9.13
2018-10-12T01:58:56.653Z,9.23
2018-10-12T02:01:25.212Z,11.20
2018-10-12T02:03:53.736Z,10.33
2018-10-12T02:06:22.271Z,10.60
2018-10-12T02:08:50.822Z,10.30
2018-10-12T02:11:19.375Z,10.40
2018-10-12T02:13:47.916Z,11.07
2018-10-12T02:16:16.444Z,10.80
2018-10-12T02:18:44.993Z,11.17
2018-10-12T02:21:13.689Z,11.37
2018-10-12T02:23:42.354Z,13.00
2018-10-12T02:26:10.888Z,12.50
2018-10-12T02:28:39.443Z,12.47
2018-10-12T02:31:08.010Z,11.00
2018-10-12T02:33:36.556Z,11.70
2018-10-12T02:36:05.139Z,11.17
2018-10-12T02:38:33.706Z,11.23
2018-10-12T02:41:02.613Z,11.80
2018-10-12T02:43:31.188Z,10.50
2018-10-12T02:45:59.761Z,10.93
2018-10-12T02:48:28.337Z,10.87
2018-10-12T02:50:56.927Z,11.53
2018-10-12T02:53:25.483Z,11.60
2018-10-12T02:55:54.124Z,13.20
2018-10-12T02:58:22.696Z,11.53
2018-10-12T03:00:51.355Z,11.70
2018-10-12T03:03:19.923Z,9.73
2018-10-12T03:05:48.535Z,9.23
2018-10-12T03:08:17.060Z,11.00
2018-10-12T03:10:45.688Z,10.13
2018-10-12T03:13:14.388Z,9.50
2018-10-12T03:15:43.203Z,10.23
2018-10-12T03:18:12.232Z,10.33
2018-10-12T03:20:41.008Z,9.60
2018-10-12T03:23:09.659Z,10.40
2018-10-12T03:25:38.186Z,10.53
2018-10-12T03:28:17.816Z,10.67
2018-10-12T03:30:46.439Z,9.90
2018-10-12T03:33:15.400Z,9.27
2018-10-12T03:35:44.264Z,10.40
2018-10-12T03:38:13.029Z,10.07
2018-10-12T03:40:41.758Z,10.30
2018-10-12T03:43:10.601Z,9.80
2018-10-12T03:45:39.459Z,10.07
2018-10-12T03:48:08.394Z,9.80
2018-10-12T03:50:37.207Z,10.57
2018-10-12T03:53:06.159Z,9.63
2018-10-12T03:55:34.748Z,9.90
2018-10-12T03:58:03.320Z,9.50
2018-10-12T04:00:31.862Z,10.30
2018-10-12T04:03:00.404Z,10.53
2018-10-12T04:05:28.943Z,10.20
2018-10-12T04:07:57.494Z,10.70
2018-10-12T04:10:26.019Z,9.17
2018-10-12T04:12:54.872Z,10.03
2018-10-12T04:15:23.771Z,11.37
2018-10-12T04:17:52.396Z,8.77
2018-10-12T04:20:20.932Z,10.07
2018-10-12T04:22:49.471Z,10.37
2018-10-12T04:25:17.988Z,10.03
2018-10-12T04:27:46.525Z,10.50
2018-10-12T04:30:15.084Z,9.47
2018-10-12T04:38:23.669Z,10.83
2018-10-12T04:41:04.264Z,9.27
2018-10-12T04:43:33.284Z,10.37
2018-10-12T04:46:03.639Z,9.80
2018-10-12T04:48:32.492Z,9.10
2018-10-12T04:51:01.374Z,9.70
2018-10-12T04:53:29.996Z,9.87
2018-10-12T04:55:58.628Z,11.07
2018-10-12T04:58:28.079Z,10.93
2018-10-12T05:00:56.659Z,10.40
2018-10-12T05:03:25.202Z,10.27
2018-10-12T05:05:53.753Z,9.60
2018-10-12T05:08:22.286Z,11.50
2018-10-12T05:10:50.858Z,8.70
2018-10-12T05:13:20.223Z,9.47
2018-10-12T05:15:48.763Z,11.43
2018-10-12T05:18:17.311Z,11.50
2018-10-12T05:20:46.028Z,11.70
2018-10-12T05:23:14.576Z,12.23
2018-10-12T05:25:43.414Z,10.77
2018-10-12T05:28:12.223Z,10.97
2018-10-12T05:30:40.800Z,10.37
2018-10-12T05:33:09.324Z,11.50
2018-10-12T05:35:37.907Z,10.43
2018-10-12T05:38:06.524Z,12.17
2018-10-12T05:40:35.118Z,11.10
2018-10-12T05:43:03.713Z,11.80
2018-10-12T05:45:32.280Z,10.50
2018-10-12T05:48:11.731Z,10.97
2018-10-12T05:50:40.396Z,10.90
2018-10-12T05:53:08.976Z,11.93
2018-10-12T05:55:37.560Z,10.30
2018-10-12T05:58:06.493Z,10.07
2018-10-12T06:00:35.061Z,12.60
2018-10-12T06:03:03.620Z,11.53
2018-10-12T06:05:32.152Z,11.83
2018-10-12T06:08:00.720Z,11.00
2018-10-12T06:10:29.257Z,10.70
2018-10-12T06:12:57.857Z,11.30
2018-10-12T06:15:26.622Z,13.80
2018-10-12T06:17:55.194Z,11.80
2018-10-12T06:20:23.768Z,16.67
2018-10-12T06:22:52.341Z,16.33
2018-10-12T06:25:20.875Z,16.30
2018-10-12T06:27:49.452Z,20.07
2018-10-12T06:30:18.241Z,20.33
2018-10-12T06:32:46.815Z,24.13
2018-10-12T06:35:15.435Z,22.03
2018-10-12T06:37:44.000Z,22.20
2018-10-12T06:40:12.543Z,23.10
2018-10-12T06:42:41.188Z,18.27
2018-10-12T06:45:09.760Z,19.20
2018-10-12T06:47:38.291Z,19.07
2018-10-12T06:50:07.085Z,16.73
2018-10-12T06:52:35.883Z,19.00
2018-10-12T06:55:04.574Z,22.07
2018-10-12T06:57:33.125Z,21.90
2018-10-12T07:00:01.749Z,21.57
2018-10-12T07:02:30.279Z,24.00
2018-10-12T07:04:58.868Z,46.47
2018-10-12T07:07:27.423Z,29.10
2018-10-12T07:09:55.960Z,18.53
2018-10-12T07:12:24.525Z,17.60
2018-10-12T07:14:53.061Z,18.33
2018-10-12T10:59:57.616Z,10.63
2018-10-12T11:02:26.169Z,10.43
2018-10-12T11:04:54.697Z,9.47
2018-10-12T11:07:23.256Z,10.70
2018-10-12T11:09:51.780Z,10.77
2018-10-12T11:12:20.421Z,11.10
2018-10-12T11:14:48.903Z,10.40
2018-10-12T11:17:17.464Z,10.37
2018-10-12T11:19:46.037Z,10.50
2018-10-12T11:22:15.967Z,10.97
2018-10-12T11:24:44.485Z,9.80
2018-10-12T11:27:13.077Z,10.20
2018-10-12T11:29:41.607Z,9.30
2018-10-12T11:32:10.144Z,10.87
2018-10-12T11:34:38.672Z,9.30
2018-10-12T11:37:07.273Z,10.43
2018-10-12T11:39:47.803Z,10.73
2018-10-12T11:42:16.451Z,10.37
2018-10-12T11:44:45.054Z,9.23
2018-10-12T11:47:13.569Z,10.10
2018-10-12T11:49:42.120Z,9.30
2018-10-12T11:52:10.733Z,9.33
2018-10-12T11:54:39.227Z,9.60
2018-10-12T11:57:07.780Z,9.83
2018-10-12T11:59:36.322Z,8.70
2018-10-12T12:02:04.928Z,9.83
2018-10-12T12:04:33.435Z,9.47
2018-10-12T12:07:01.968Z,9.00
2018-10-12T12:09:30.517Z,9.13
2018-10-12T12:11:59.057Z,10.23
2018-10-12T12:14:27.604Z,10.47
2018-10-12T12:16:56.180Z,9.60
2018-10-12T12:19:24.798Z,9.40
2018-10-12T12:21:53.316Z,9.50
2018-10-12T12:24:21.844Z,9.63
2018-10-12T12:26:50.371Z,11.63
2018-10-12T12:29:18.924Z,11.20
2018-10-12T12:31:47.499Z,10.60
2018-10-12T12:34:16.104Z,10.00
2018-10-12T12:36:44.672Z,10.00
2018-10-12T12:39:13.227Z,9.90
2018-10-12T12:41:41.832Z,9.60
2018-10-12T12:44:10.512Z,10.33
2018-10-12T12:46:39.052Z,10.00
2018-10-12T12:49:08.132Z,11.40
2018-10-12T12:51:36.304Z,9.53
2018-10-12T12:54:04.840Z,9.67
2018-10-12T12:56:33.417Z,10.03
2018-10-12T12:59:01.977Z,10.27
2018-10-12T13:01:30.512Z,10.33
2018-10-12T13:03:59.044Z,9.57
2018-10-12T13:06:27.659Z,9.93
2018-10-12T13:08:56.220Z,10.17
2018-10-12T13:11:24.760Z,9.90
2018-10-12T13:13:53.317Z,10.43
2018-10-12T13:16:21.855Z,9.33
2018-10-12T13:18:50.383Z,9.17
2018-10-12T13:21:18.909Z,10.60
2018-10-12T13:23:47.443Z,10.93
2018-10-12T13:26:16.171Z,9.60
2018-10-12T13:28:44.570Z,9.40
2018-10-12T13:31:13.237Z,9.30
2018-10-12T13:33:41.788Z,9.67
2018-10-12T13:36:10.368Z,9.13
2018-10-12T13:38:38.905Z,9.50
2018-10-12T13:41:07.671Z,9.87
2018-10-12T13:43:36.276Z,9.70
2018-10-12T13:46:04.830Z,9.53
2018-10-12T13:48:33.372Z,9.67
2018-10-12T13:51:01.913Z,9.87
2018-10-12T13:53:30.482Z,10.97
2018-10-12T13:55:59.204Z,10.60
2018-10-12T13:58:27.740Z,10.53
2018-10-12T14:00:56.272Z,9.83
2018-10-12T14:03:24.811Z,10.27
2018-10-12T14:05:53.403Z,10.20
2018-10-12T14:08:21.950Z,9.67
2018-10-12T14:10:50.452Z,9.20
2018-10-12T14:13:19.002Z,9.73
2018-10-12T14:15:47.549Z,9.90
2018-10-12T14:18:16.169Z,9.13
2018-10-12T14:20:44.684Z,10.47
2018-10-12T14:23:13.240Z,9.20
2018-10-12T14:25:41.784Z,9.10
2018-10-12T14:28:10.491Z,10.37
2018-10-12T14:30:39.061Z,9.47
2018-10-12T14:33:08.076Z,9.20
2018-10-12T14:35:36.777Z,10.30
2018-10-12T14:38:05.387Z,11.33
2018-10-12T14:40:33.929Z,8.87
2018-10-12T14:43:02.498Z,9.90
2018-10-12T14:45:31.081Z,9.90
2018-10-12T14:47:59.683Z,9.60
2018-10-12T14:50:28.260Z,9.07
2018-10-12T14:52:56.887Z,10.10
2018-10-12T14:55:25.410Z,10.00
2018-10-12T14:57:53.956Z,8.40
2018-10-12T15:00:22.496Z,8.77
2018-10-12T15:02:51.027Z,9.30
2018-10-12T15:05:19.620Z,11.70
2018-10-12T15:07:48.168Z,10.00
2018-10-12T15:10:16.820Z,10.37
2018-10-12T15:12:45.375Z,10.23
2018-10-12T15:15:20.010Z,10.57
2018-10-12T15:17:49.632Z,11.40
2018-10-12T15:20:18.815Z,10.73
2018-10-12T15:22:47.395Z,11.30
2018-10-12T15:25:15.951Z,10.50
2018-10-12T15:27:44.688Z,11.90
2018-10-12T15:30:13.709Z,11.63
2018-10-12T15:32:42.296Z,10.10
2018-10-12T15:35:11.179Z,14.90
2018-10-12T15:37:40.543Z,10.97
2018-10-12T15:40:09.380Z,11.87
2018-10-12T15:42:38.092Z,11.10
2018-10-12T15:45:06.653Z,10.20
2018-10-12T15:47:35.276Z,10.57
2018-10-12T15:50:03.882Z,13.10
2018-10-12T15:52:32.444Z,12.60
2018-10-12T15:55:01.036Z,13.13
2018-10-12T15:57:30.789Z,14.83
2018-10-12T15:59:59.327Z,16.80
2018-10-12T16:02:27.904Z,14.83
2018-10-12T16:04:56.436Z,10.70
2018-10-12T16:07:24.996Z,13.00
2018-10-12T16:09:54.288Z,13.67
2018-10-12T16:12:23.542Z,13.73
2018-10-12T16:14:52.221Z,12.27
2018-10-12T18:31:28.336Z,17.50
2018-10-12T18:33:56.907Z,19.10
2018-10-12T18:36:25.477Z,18.43
2018-10-12T18:38:54.075Z,18.47
2018-10-12T18:41:22.668Z,17.77
2018-10-12T18:43:51.264Z,19.00
2018-10-12T18:46:19.815Z,18.67
2018-10-12T18:48:48.729Z,19.50
2018-10-12T18:51:17.328Z,18.40
2018-10-12T18:53:45.884Z,21.63
2018-10-12T18:56:14.467Z,22.00
2018-10-12T18:58:43.062Z,21.20
2018-10-12T19:01:11.640Z,20.80
2018-10-12T19:03:41.105Z,21.30
2018-10-12T19:06:09.832Z,18.83
2018-10-12T19:08:38.444Z,19.00
2018-10-12T19:11:07.004Z,17.30
2018-10-12T19:13:35.573Z,21.20
2018-10-12T19:16:23.328Z,22.90
2018-10-12T19:18:51.912Z,24.70
2018-10-12T19:21:20.453Z,25.20
2018-10-12T19:23:49.066Z,25.13
2018-10-12T19:26:17.564Z,23.93
2018-10-12T19:28:46.362Z,25.47
2018-10-12T19:31:14.987Z,25.03
2018-10-12T19:33:43.529Z,22.37
2018-10-12T19:36:12.068Z,25.37
2018-10-12T19:38:40.640Z,23.93
2018-10-12T19:41:09.196Z,24.53
2018-10-12T19:43:37.764Z,24.80
2018-10-12T19:46:06.329Z,23.73
2018-10-12T19:48:34.872Z,23.10
2018-10-12T19:51:03.436Z,22.03
2018-10-12T19:53:31.984Z,21.53
2018-10-12T19:56:00.552Z,21.90
2018-10-12T19:58:29.123Z,21.80
2018-10-12T20:00:57.799Z,19.67
2018-10-12T20:03:27.111Z,20.97
2018-10-12T20:05:55.947Z,24.00
2018-10-12T20:08:24.998Z,24.20
2018-10-12T20:10:53.752Z,24.27
2018-10-12T20:13:22.336Z,23.60
2018-10-12T20:15:50.944Z,21.30
2018-10-12T20:18:19.509Z,22.77
2018-10-12T20:20:48.104Z,23.23
2018-10-12T20:23:16.649Z,21.93
2018-10-12T20:25:45.249Z,21.50
2018-10-12T20:28:13.805Z,22.27
2018-10-12T20:30:42.475Z,20.43
2018-10-12T20:33:11.060Z,23.50
2018-10-12T20:35:39.600Z,20.50
2018-10-12T20:38:08.444Z,24.97
2018-10-12T20:40:36.985Z,23.23
2018-10-12T20:43:05.761Z,23.87
2018-10-12T20:45:34.595Z,22.70
2018-10-12T20:48:03.140Z,22.53
2018-10-12T20:50:31.702Z,22.50
2018-10-12T20:53:00.257Z,22.73
2018-10-12T20:55:28.820Z,23.03
2018-10-12T20:57:57.418Z,22.50
2018-10-12T21:00:26.022Z,21.60
2018-10-12T21:02:54.556Z,22.30
2018-10-12T21:05:23.125Z,23.63
2018-10-12T21:07:51.647Z,24.50
2018-10-12T21:10:20.243Z,22.50
2018-10-12T21:12:48.793Z,23.60
2018-10-12T21:15:17.319Z,23.73
2018-10-12T21:17:45.905Z,23.20
2018-10-12T21:20:14.469Z,22.27
2018-10-12T21:22:43.050Z,22.40
2018-10-12T21:25:11.580Z,23.03
2018-10-12T21:27:40.147Z,24.13
2018-10-12T21:30:08.747Z,22.93
2018-10-12T21:32:37.296Z,23.60
2018-10-12T21:35:05.860Z,22.87
2018-10-12T21:37:34.460Z,22.57
2018-10-12T21:40:03.028Z,24.47
2018-10-12T21:42:31.553Z,21.87
2018-10-12T21:45:00.105Z,22.57
2018-10-12T21:47:28.638Z,21.43
2018-10-12T21:49:57.224Z,22.57
2018-10-12T21:52:25.759Z,21.83
2018-10-12T21:54:54.302Z,21.97
2018-10-12T21:57:22.852Z,22.50
2018-10-12T21:59:51.413Z,22.63
2018-10-12T22:02:20.838Z,23.07
2018-10-12T22:04:49.419Z,22.70
2018-10-12T22:07:18.022Z,22.30
2018-10-12T22:09:46.584Z,23.73
2018-10-12T22:12:15.129Z,23.07
2018-10-12T22:14:43.784Z,21.63
